createdAt,value
2023-01-28T00:00:55.559Z,1.50
2023-01-28T00:03:22.796Z,1.60
2023-01-28T00:05:52.387Z,1.50
2023-01-28T00:08:19.254Z,1.50
2023-01-28T00:10:46.132Z,1.50
2023-01-28T00:13:15.039Z,1.50
2023-01-28T00:15:42.544Z,1.50
2023-01-28T00:18:09.805Z,1.50
2023-01-28T00:20:37.004Z,1.40
2023-01-28T00:23:04.213Z,1.40
2023-01-28T00:25:31.344Z,1.40
2023-01-28T00:27:58.234Z,1.50
2023-01-28T00:30:25.309Z,1.40
2023-01-28T00:32:54.144Z,1.40
2023-01-28T00:35:21.143Z,1.40
2023-01-28T00:37:48.226Z,1.40
2023-01-28T00:40:15.405Z,1.40
2023-01-28T00:42:44.848Z,1.30
2023-01-28T00:45:11.994Z,1.20
2023-01-28T00:47:38.981Z,1.20
2023-01-28T00:50:06.474Z,1.20
2023-01-28T00:52:36.044Z,1.30
2023-01-28T00:55:03.051Z,1.30
2023-01-28T00:57:29.969Z,1.30
2023-01-28T00:59:56.894Z,1.40
2023-01-28T01:02:26.133Z,1.30
2023-01-28T01:04:59.522Z,1.50
2023-01-28T01:07:41.494Z,1.40
2023-01-28T01:10:14.709Z,1.40
2023-01-28T01:12:44.071Z,1.20
2023-01-28T01:15:11.702Z,1.20
2023-01-28T01:17:40.695Z,1.30
2023-01-28T01:20:14.342Z,1.30
2023-01-28T01:22:41.317Z,1.40
2023-01-28T01:25:08.794Z,1.30
2023-01-28T01:27:39.260Z,1.30
2023-01-28T01:30:08.486Z,1.40
2023-01-28T01:32:35.812Z,1.30
2023-01-28T01:35:06.790Z,1.30
2023-01-28T01:37:36.837Z,1.20
2023-01-28T01:40:05.131Z,1.10
2023-01-28T01:42:33.018Z,1.00
2023-01-28T01:45:17.982Z,1.00
2023-01-28T01:48:01.217Z,1.10
2023-01-28T01:50:30.197Z,1.10
2023-01-28T01:53:02.966Z,1.20
2023-01-28T01:55:33.193Z,1.20
2023-01-28T01:58:05.161Z,1.10
2023-01-28T02:00:32.224Z,1.10
2023-01-28T02:02:59.696Z,1.20
2023-01-28T02:05:27.028Z,1.20
2023-01-28T02:07:55.713Z,1.20
2023-01-28T02:10:23.527Z,1.10
2023-01-28T02:12:56.685Z,1.20
2023-01-28T02:15:29.802Z,1.20
2023-01-28T02:17:59.217Z,1.30
2023-01-28T02:20:45.168Z,1.40
2023-01-28T02:23:36.288Z,1.50
2023-01-28T02:26:41.147Z,1.50
2023-01-28T02:29:15.696Z,1.50
2023-01-28T02:32:02.228Z,1.40
2023-01-28T02:34:35.367Z,1.30
2023-01-28T02:37:18.927Z,1.30
2023-01-28T02:39:55.201Z,1.40
2023-01-28T02:42:29.110Z,1.50
2023-01-28T02:44:56.446Z,1.60
2023-01-28T02:47:42.282Z,1.50
2023-01-28T02:50:15.775Z,1.50
2023-01-28T02:53:25.042Z,1.40
2023-01-28T02:56:02.616Z,1.40
2023-01-28T02:58:35.949Z,1.40
2023-01-28T03:01:26.277Z,1.40
2023-01-28T03:04:22.520Z,1.40
2023-01-28T03:06:53.664Z,1.40
2023-01-28T03:09:28.398Z,1.40
2023-01-28T03:12:16.388Z,1.40
2023-01-28T03:15:07.141Z,1.40
2023-01-28T03:18:12.356Z,1.40
2023-01-28T03:21:07.461Z,1.40
2023-01-28T03:24:16.084Z,1.40
2023-01-28T03:27:13.981Z,1.40
2023-01-28T03:30:02.166Z,1.40
2023-01-28T03:32:51.882Z,1.40
2023-01-28T03:35:42.955Z,1.40
2023-01-28T03:38:23.460Z,1.40
2023-01-28T03:40:52.772Z,1.50
2023-01-28T03:43:24.408Z,1.40
2023-01-28T03:45:55.393Z,1.30
2023-01-28T03:48:25.769Z,1.30
2023-01-28T03:50:55.575Z,1.40
2023-01-28T03:53:23.650Z,1.30
2023-01-28T03:55:56.700Z,1.20
2023-01-28T03:58:27.362Z,1.20
2023-01-28T04:00:54.764Z,1.20
2023-01-28T04:03:23.879Z,1.30
2023-01-28T04:05:59.176Z,1.30
2023-01-28T04:08:33.947Z,1.30
2023-01-28T04:11:20.178Z,1.40
2023-01-28T04:13:49.789Z,1.40
2023-01-28T04:16:22.366Z,1.40
2023-01-28T04:18:55.585Z,1.40
2023-01-28T04:21:22.589Z,1.50
2023-01-28T04:23:49.595Z,1.50
2023-01-28T04:26:19.203Z,1.50
2023-01-28T04:28:46.223Z,1.50
2023-01-28T04:31:13.598Z,1.60
2023-01-28T04:34:13.031Z,1.60
2023-01-28T04:36:51.592Z,1.60
2023-01-28T04:39:38.737Z,1.60
2023-01-28T04:42:28.965Z,1.50
2023-01-28T04:45:18.377Z,1.50
2023-01-28T04:48:18.102Z,1.50
2023-01-28T04:51:20.326Z,1.60
2023-01-28T04:54:06.121Z,1.60
2023-01-28T04:56:35.223Z,1.60
2023-01-28T04:59:18.858Z,1.60
2023-01-28T05:01:45.932Z,1.60
2023-01-28T05:04:16.482Z,1.60
2023-01-28T05:06:43.795Z,1.60
2023-01-28T05:09:17.417Z,1.60
2023-01-28T05:11:44.465Z,1.60
2023-01-28T05:14:11.592Z,1.60
2023-01-28T05:16:45.387Z,1.70
2023-01-28T05:19:12.585Z,1.70
2023-01-28T05:21:43.970Z,1.70
2023-01-28T05:24:38.129Z,1.70
2023-01-28T05:27:05.119Z,1.60
2023-01-28T05:29:33.154Z,1.60
2023-01-28T05:32:00.256Z,1.60
2023-01-28T05:34:29.841Z,1.60
2023-01-28T05:36:57.981Z,1.50
2023-01-28T05:39:31.530Z,1.50
2023-01-28T05:41:58.564Z,1.40
2023-01-28T05:44:25.696Z,1.50
2023-01-28T05:47:10.839Z,1.50
2023-01-28T05:49:46.537Z,1.50
2023-01-28T05:52:31.700Z,1.50
2023-01-28T05:55:01.394Z,1.60
2023-01-28T05:57:28.654Z,1.60
2023-01-28T05:59:55.855Z,1.50
2023-01-28T06:02:22.814Z,1.50
2023-01-28T06:04:53.487Z,1.50
2023-01-28T06:07:24.055Z,1.60
2023-01-28T06:09:51.196Z,1.70
2023-01-28T06:12:20.904Z,1.60
2023-01-28T06:15:14.074Z,1.60
2023-01-28T06:17:56.324Z,1.60
2023-01-28T06:20:30.384Z,1.60
2023-01-28T06:23:00.233Z,1.50
2023-01-28T06:25:27.343Z,1.50
2023-01-28T06:27:54.966Z,1.50
2023-01-28T06:30:21.827Z,1.50
2023-01-28T06:32:55.031Z,1.60
2023-01-28T06:35:22.282Z,1.60
2023-01-28T06:37:49.227Z,1.60
2023-01-28T06:40:16.810Z,1.70
2023-01-28T06:42:46.631Z,1.70
2023-01-28T06:45:16.039Z,1.60
2023-01-28T06:47:42.939Z,1.60
2023-01-28T06:50:12.450Z,1.50
2023-01-28T06:52:43.079Z,1.60
2023-01-28T06:55:10.678Z,1.60
2023-01-28T06:57:45.554Z,1.60
2023-01-28T07:00:16.297Z,1.60
2023-01-28T07:02:43.539Z,1.50
2023-01-28T07:05:14.137Z,1.50
2023-01-28T07:07:43.244Z,1.50
2023-01-28T07:10:11.282Z,1.50
2023-01-28T07:12:40.909Z,1.50
2023-01-28T07:15:15.324Z,1.60
2023-01-28T07:17:47.670Z,1.60
2023-01-28T07:20:16.364Z,1.50
2023-01-28T07:22:44.532Z,1.50
2023-01-28T07:25:17.417Z,1.60
2023-01-28T07:27:52.495Z,1.60
2023-01-28T07:30:24.139Z,1.60
2023-01-28T07:32:58.923Z,1.70
2023-01-28T07:35:28.485Z,1.70
2023-01-28T07:38:01.193Z,1.70
2023-01-28T07:40:29.005Z,1.80
2023-01-28T07:42:58.511Z,1.80
2023-01-28T07:45:30.624Z,1.80
2023-01-28T07:48:03.325Z,1.80
2023-01-28T07:50:32.865Z,2.00
2023-01-28T07:53:05.269Z,2.20
2023-01-28T07:55:35.730Z,2.20
2023-01-28T07:58:07.266Z,2.20
2023-01-28T08:00:36.043Z,2.20
2023-01-28T08:03:16.075Z,2.20
2023-01-28T08:05:49.196Z,2.30
2023-01-28T08:08:16.431Z,2.30
2023-01-28T08:10:45.493Z,2.40
2023-01-28T08:13:14.145Z,2.50
2023-01-28T08:15:41.738Z,2.50
2023-01-28T08:18:10.271Z,2.60
2023-01-28T08:20:39.816Z,2.70
2023-01-28T08:23:18.266Z,2.80
2023-01-28T08:25:48.998Z,3.00
2023-01-28T08:28:19.514Z,3.00
2023-01-28T08:30:46.688Z,3.00
2023-01-28T08:33:15.588Z,2.90
2023-01-28T08:35:42.652Z,3.00
2023-01-28T08:38:11.270Z,3.10
2023-01-28T08:40:38.325Z,3.10
2023-01-28T08:43:08.054Z,3.20
2023-01-28T08:45:35.189Z,3.30
2023-01-28T08:48:06.943Z,3.10
2023-01-28T08:50:37.102Z,3.30
2023-01-28T08:53:19.227Z,3.30
2023-01-28T08:55:49.103Z,3.20
2023-01-28T08:58:18.505Z,3.40
2023-01-28T09:00:46.770Z,3.40
2023-01-28T09:03:14.231Z,3.50
2023-01-28T09:05:41.271Z,3.60
2023-01-28T09:08:11.735Z,3.70
2023-01-28T09:10:42.405Z,3.60
2023-01-28T09:13:14.702Z,3.80
2023-01-28T09:15:42.088Z,3.90
2023-01-28T09:18:09.031Z,4.00
2023-01-28T09:20:40.487Z,4.00
2023-01-28T09:23:10.734Z,3.90
2023-01-28T09:25:37.651Z,4.00
2023-01-28T09:28:04.929Z,4.00
2023-01-28T09:30:32.083Z,3.90
2023-01-28T09:32:59.495Z,3.90
2023-01-28T09:35:26.714Z,4.10
2023-01-28T09:37:58.102Z,3.90
2023-01-28T09:40:45.604Z,4.00
2023-01-28T09:43:50.170Z,4.10
2023-01-28T09:46:18.668Z,4.30
2023-01-28T09:48:51.082Z,4.40
2023-01-28T09:51:45.510Z,4.40
2023-01-28T09:54:41.067Z,4.50
2023-01-28T09:57:21.776Z,4.30
2023-01-28T09:59:49.794Z,4.40
2023-01-28T10:02:31.837Z,4.40
2023-01-28T10:05:19.005Z,4.40
2023-01-28T10:08:06.771Z,4.50
2023-01-28T10:10:50.472Z,4.40
2023-01-28T10:13:24.810Z,4.40
2023-01-28T10:15:54.628Z,4.60
2023-01-28T10:18:54.004Z,4.70
2023-01-28T10:21:38.857Z,4.50
2023-01-28T10:24:26.395Z,4.50
2023-01-28T10:26:56.003Z,4.70
2023-01-28T10:29:25.932Z,5.00
2023-01-28T10:31:57.777Z,5.20
2023-01-28T10:34:24.941Z,5.40
2023-01-28T10:36:52.485Z,5.50
2023-01-28T10:39:22.924Z,5.30
2023-01-28T10:41:57.948Z,5.40
2023-01-28T10:44:43.990Z,5.20
2023-01-28T10:47:20.556Z,5.30
2023-01-28T10:49:53.226Z,5.10
2023-01-28T10:52:20.243Z,5.10
2023-01-28T10:54:49.284Z,5.10
2023-01-28T10:57:23.035Z,4.90
2023-01-28T10:59:57.223Z,5.00
2023-01-28T11:02:24.184Z,5.00
2023-01-28T11:05:01.460Z,4.90
2023-01-28T11:07:33.563Z,4.90
2023-01-28T11:10:00.551Z,5.10
2023-01-28T11:12:31.028Z,5.10
2023-01-28T11:15:01.351Z,5.10
2023-01-28T11:17:38.015Z,5.10
2023-01-28T11:20:20.656Z,5.20
2023-01-28T11:22:49.104Z,5.30
2023-01-28T11:25:37.208Z,5.20
2023-01-28T11:28:18.598Z,5.30
2023-01-28T11:30:52.165Z,5.50
2023-01-28T11:33:26.521Z,5.50
2023-01-28T11:36:18.876Z,5.50
2023-01-28T11:38:53.256Z,5.60
2023-01-28T11:41:30.219Z,5.40
2023-01-28T11:44:20.769Z,5.30
2023-01-28T11:47:20.391Z,5.00
2023-01-28T11:50:00.212Z,5.00
2023-01-28T11:53:02.551Z,5.00
2023-01-28T11:56:00.177Z,5.20
2023-01-28T11:59:12.258Z,5.40
2023-01-28T12:02:04.709Z,5.40
2023-01-28T12:04:43.589Z,5.30
2023-01-28T12:07:34.722Z,5.10
2023-01-28T12:10:13.286Z,4.70
2023-01-28T12:12:51.432Z,4.60
2023-01-28T12:16:00.380Z,4.30
2023-01-28T12:18:46.300Z,4.40
2023-01-28T12:21:38.373Z,4.40
2023-01-28T12:24:27.156Z,4.40
2023-01-28T12:27:15.989Z,4.10
2023-01-28T12:29:54.994Z,4.00
2023-01-28T12:32:42.746Z,4.00
2023-01-28T12:35:32.504Z,3.90
2023-01-28T12:38:28.100Z,4.20
2023-01-28T12:41:25.736Z,4.20
2023-01-28T12:44:02.540Z,4.20
2023-01-28T12:46:52.529Z,4.10
2023-01-28T12:49:32.242Z,3.90
2023-01-28T12:52:06.251Z,3.90
2023-01-28T12:54:36.254Z,3.80
2023-01-28T12:57:05.908Z,3.70
2023-01-28T12:59:51.643Z,3.60
2023-01-28T13:02:40.823Z,3.70
2023-01-28T13:05:18.963Z,3.70
2023-01-28T13:07:53.546Z,3.70
2023-01-28T13:10:38.617Z,3.70
2023-01-28T13:13:06.530Z,3.70
2023-01-28T13:15:40.856Z,3.70
2023-01-28T13:18:07.706Z,3.70
2023-01-28T13:20:48.400Z,3.70
2023-01-28T13:23:39.837Z,3.70
2023-01-28T13:26:18.918Z,3.80
2023-01-28T13:28:50.948Z,3.80
2023-01-28T13:31:21.332Z,3.70
2023-01-28T13:33:54.471Z,3.70
2023-01-28T13:36:21.350Z,3.60
2023-01-28T13:38:49.376Z,3.50
2023-01-28T13:41:16.281Z,3.40
2023-01-28T13:43:45.605Z,3.30
2023-01-28T13:46:31.016Z,3.40
2023-01-28T13:48:59.449Z,3.70
2023-01-28T13:51:33.000Z,3.90
2023-01-28T13:54:18.789Z,3.90
2023-01-28T13:57:00.760Z,4.30
2023-01-28T14:00:01.630Z,4.40
2023-01-28T14:02:57.839Z,3.90
2023-01-28T14:05:57.844Z,3.40
2023-01-28T14:09:05.978Z,3.10
2023-01-28T14:12:10.545Z,2.90
2023-01-28T14:15:01.455Z,3.00
2023-01-28T14:17:35.352Z,3.40
2023-01-28T14:20:05.301Z,3.70
2023-01-28T14:22:32.221Z,3.80
2023-01-28T14:25:03.618Z,4.10
2023-01-28T14:27:41.236Z,4.20
2023-01-28T14:30:13.863Z,4.00
2023-01-28T14:32:47.227Z,3.90
2023-01-28T14:35:31.447Z,3.70
2023-01-28T14:38:06.795Z,3.60
2023-01-28T14:40:36.945Z,3.50
2023-01-28T14:43:07.435Z,3.50
2023-01-28T14:45:49.027Z,3.40
2023-01-28T14:48:37.025Z,3.30
2023-01-28T14:51:41.786Z,3.40
2023-01-28T14:54:32.692Z,3.40
2023-01-28T14:57:34.113Z,3.40
2023-01-28T15:00:02.114Z,3.50
2023-01-28T15:02:31.289Z,3.40
2023-01-28T15:05:14.503Z,3.50
2023-01-28T15:07:45.335Z,3.50
2023-01-28T15:10:20.480Z,3.50
2023-01-28T15:13:07.614Z,3.30
2023-01-28T15:15:38.184Z,3.40
2023-01-28T15:18:29.278Z,3.40
2023-01-28T15:20:59.600Z,3.40
2023-01-28T15:23:33.363Z,3.40
2023-01-28T15:26:04.805Z,3.40
2023-01-28T15:28:34.085Z,3.50
2023-01-28T15:31:03.805Z,3.60
2023-01-28T15:33:35.390Z,3.60
2023-01-28T15:36:02.878Z,3.60
2023-01-28T15:38:32.094Z,3.60
2023-01-28T15:41:01.015Z,3.70
2023-01-28T15:43:34.052Z,3.40
2023-01-28T15:46:03.814Z,3.50
2023-01-28T15:48:36.081Z,3.30
2023-01-28T15:51:28.500Z,3.40
2023-01-28T15:54:06.091Z,3.50
2023-01-28T15:56:33.680Z,3.60
2023-01-28T15:59:16.063Z,3.60
2023-01-28T16:01:45.709Z,3.40
2023-01-28T16:04:26.969Z,3.30
2023-01-28T16:06:56.329Z,3.10
2023-01-28T16:09:34.708Z,3.00
2023-01-28T16:12:10.999Z,2.90
2023-01-28T16:14:44.477Z,2.90
2023-01-28T16:17:17.572Z,2.90
2023-01-28T16:19:50.468Z,2.80
2023-01-28T16:22:23.260Z,2.80
2023-01-28T16:24:55.494Z,2.80
2023-01-28T16:27:25.162Z,2.80
2023-01-28T16:29:52.067Z,2.80
2023-01-28T16:32:33.704Z,2.80
2023-01-28T16:35:01.150Z,2.70
2023-01-28T16:37:28.043Z,2.70
2023-01-28T16:39:54.899Z,2.70
2023-01-28T16:42:24.078Z,2.70
2023-01-28T16:44:50.986Z,2.70
2023-01-28T16:47:17.868Z,2.70
2023-01-28T16:49:44.804Z,2.70
2023-01-28T16:52:14.570Z,2.70
2023-01-28T16:54:45.556Z,2.70
2023-01-28T16:57:24.684Z,2.70
2023-01-28T16:59:51.678Z,2.70
2023-01-28T17:02:18.572Z,2.70
2023-01-28T17:04:47.923Z,2.70
2023-01-28T17:07:17.201Z,2.60
2023-01-28T17:09:44.153Z,2.70
2023-01-28T17:12:11.075Z,2.60
2023-01-28T17:14:40.089Z,2.50
2023-01-28T17:17:09.603Z,2.50
2023-01-28T17:19:36.441Z,2.50
2023-01-28T17:22:03.485Z,2.60
2023-01-28T17:24:31.780Z,2.60
2023-01-28T17:26:59.242Z,2.60
2023-01-28T17:29:26.117Z,2.60
2023-01-28T17:31:53.101Z,2.60
2023-01-28T17:34:20.149Z,2.60
2023-01-28T17:36:47.075Z,2.50
2023-01-28T17:39:19.151Z,2.30
2023-01-28T17:41:46.000Z,2.40
2023-01-28T17:44:16.676Z,2.40
2023-01-28T17:46:43.807Z,2.40
2023-01-28T17:49:13.467Z,2.40
2023-01-28T17:51:40.423Z,2.50
2023-01-28T17:54:07.329Z,2.50
2023-01-28T17:56:38.149Z,2.50
2023-01-28T17:59:09.652Z,2.40
2023-01-28T18:01:41.987Z,2.40
2023-01-28T18:04:10.250Z,2.30
2023-01-28T18:06:38.810Z,2.30
2023-01-28T18:09:05.784Z,2.40
2023-01-28T18:11:32.995Z,2.40
2023-01-28T18:14:00.116Z,2.40
2023-01-28T18:16:28.121Z,2.50
2023-01-28T18:19:24.180Z,2.50
2023-01-28T18:21:53.378Z,2.50
2023-01-28T18:24:26.006Z,2.50
2023-01-28T18:27:00.783Z,2.50
2023-01-28T18:29:31.159Z,2.50
2023-01-28T18:31:59.677Z,2.50
2023-01-28T18:34:28.479Z,2.60
2023-01-28T18:36:57.114Z,2.60
2023-01-28T18:39:30.952Z,2.60
2023-01-28T18:42:03.044Z,2.60
2023-01-28T18:44:30.788Z,2.60
2023-01-28T18:46:59.800Z,2.60
2023-01-28T18:49:28.863Z,2.60
2023-01-28T18:51:59.364Z,2.60
2023-01-28T18:54:28.594Z,2.60
2023-01-28T18:56:55.606Z,2.50
2023-01-28T18:59:22.669Z,2.50
2023-01-28T19:01:54.218Z,2.50
2023-01-28T19:04:21.474Z,2.50
2023-01-28T19:06:48.535Z,2.60
2023-01-28T19:09:17.036Z,2.60
2023-01-28T19:11:44.129Z,2.60
2023-01-28T19:14:15.018Z,2.50
2023-01-28T19:16:42.450Z,2.50
2023-01-28T19:19:09.365Z,2.50
2023-01-28T19:21:38.778Z,2.50
2023-01-28T19:24:10.611Z,2.50
2023-01-28T19:26:39.724Z,2.50
2023-01-28T19:29:12.881Z,2.50
2023-01-28T19:31:40.943Z,2.30
2023-01-28T19:34:10.505Z,2.20
2023-01-28T19:36:38.090Z,2.10
2023-01-28T19:39:08.111Z,2.00
2023-01-28T19:41:36.017Z,1.90
2023-01-28T19:44:03.359Z,1.80
2023-01-28T19:46:30.435Z,1.80
2023-01-28T19:48:57.510Z,1.70
2023-01-28T19:51:26.769Z,1.70
2023-01-28T19:53:55.134Z,1.60
2023-01-28T19:56:26.817Z,1.60
2023-01-28T19:58:54.631Z,1.70
2023-01-28T20:01:26.639Z,1.70
2023-01-28T20:03:58.667Z,1.70
2023-01-28T20:06:28.206Z,1.80
2023-01-28T20:08:59.622Z,1.90
2023-01-28T20:11:31.770Z,1.80
2023-01-28T20:14:01.346Z,1.80
2023-01-28T20:16:32.836Z,1.90
2023-01-28T20:19:02.483Z,2.00
2023-01-28T20:21:31.366Z,2.20
2023-01-28T20:24:00.199Z,2.20
2023-01-28T20:26:32.426Z,2.20
2023-01-28T20:29:04.445Z,2.20
2023-01-28T20:31:32.776Z,2.30
2023-01-28T20:34:02.763Z,2.10
2023-01-28T20:36:34.441Z,2.10
2023-01-28T20:39:01.372Z,2.10
2023-01-28T20:41:31.356Z,2.10
2023-01-28T20:43:58.265Z,2.20
2023-01-28T20:46:30.693Z,2.30
2023-01-28T20:49:00.129Z,2.30
2023-01-28T20:51:29.235Z,2.30
2023-01-28T20:53:59.238Z,2.40
2023-01-28T20:56:27.598Z,2.30
2023-01-28T20:58:58.097Z,2.30
2023-01-28T21:01:27.371Z,2.30
2023-01-28T21:03:56.020Z,2.30
2023-01-28T21:06:24.039Z,2.30
2023-01-28T21:08:52.993Z,2.30
2023-01-28T21:11:21.984Z,2.40
2023-01-28T21:13:48.914Z,2.40
2023-01-28T21:16:16.111Z,2.50
2023-01-28T21:18:43.709Z,2.50
2023-01-28T21:21:17.618Z,2.40
2023-01-28T21:23:44.703Z,2.30
2023-01-28T21:26:12.587Z,2.30
2023-01-28T21:28:39.485Z,2.20
2023-01-28T21:31:17.107Z,2.30
2023-01-28T21:33:48.073Z,2.30
2023-01-28T21:36:16.045Z,2.20
2023-01-28T21:38:43.181Z,2.10
2023-01-28T21:41:10.539Z,2.10
2023-01-28T21:43:37.638Z,2.00
2023-01-28T21:46:07.374Z,1.90
2023-01-28T21:48:34.300Z,2.00
2023-01-28T21:51:26.544Z,2.00
2023-01-28T21:53:53.877Z,2.10
2023-01-28T21:56:25.739Z,2.00
2023-01-28T21:59:11.208Z,1.90
2023-01-28T22:01:40.373Z,2.00
2023-01-28T22:04:07.291Z,1.90
2023-01-28T22:06:36.669Z,1.80
2023-01-28T22:09:04.373Z,1.80
2023-01-28T22:11:31.457Z,1.70
2023-01-28T22:13:58.393Z,1.70
2023-01-28T22:16:25.290Z,1.80
2023-01-28T22:18:54.396Z,1.80
2023-01-28T22:21:21.255Z,1.70
2023-01-28T22:23:50.557Z,1.70
2023-01-28T22:26:19.527Z,1.80
2023-01-28T22:28:48.948Z,1.70
2023-01-28T22:31:17.039Z,1.60
2023-01-28T22:33:44.249Z,1.60
2023-01-28T22:36:15.135Z,1.70
2023-01-28T22:38:44.063Z,1.70
2023-01-28T22:41:19.263Z,1.80
2023-01-28T22:43:46.967Z,1.90
2023-01-28T22:46:16.863Z,1.80
2023-01-28T22:48:44.438Z,1.80
2023-01-28T22:51:25.920Z,1.80
2023-01-28T22:53:56.038Z,1.70
2023-01-28T22:56:25.567Z,1.70
2023-01-28T22:59:00.277Z,1.70
2023-01-28T23:01:28.226Z,1.80
2023-01-28T23:03:56.227Z,1.60
2023-01-28T23:06:26.063Z,1.60
2023-01-28T23:08:54.270Z,1.70
2023-01-28T23:11:27.458Z,1.70
2023-01-28T23:14:18.858Z,1.70
2023-01-28T23:17:07.348Z,1.70
2023-01-28T23:19:52.780Z,1.70
2023-01-28T23:22:43.675Z,1.70
2023-01-28T23:25:11.547Z,1.80
2023-01-28T23:27:38.475Z,1.80
2023-01-28T23:30:09.893Z,1.80
2023-01-28T23:32:42.197Z,1.80
2023-01-28T23:35:10.373Z,1.80
2023-01-28T23:37:40.220Z,1.90
2023-01-28T23:40:07.980Z,1.90
2023-01-28T23:42:34.966Z,1.90
2023-01-28T23:45:02.016Z,1.90
2023-01-28T23:47:31.136Z,1.90
2023-01-28T23:49:58.211Z,2.00
2023-01-28T23:52:26.739Z,2.10
2023-01-28T23:54:53.714Z,2.10
2023-01-28T23:57:20.587Z,2.10
2023-01-28T23:59:49.552Z,1.90
